createdAt,value
2017-08-06T00:00:06.066Z,1008.1
2017-08-06T00:01:07.454Z,1008.2
2017-08-06T00:02:08.857Z,1008.2
2017-08-06T00:03:10.374Z,1008.2
2017-08-06T00:04:11.775Z,1008.2
2017-08-06T00:05:13.184Z,1008.2
2017-08-06T00:06:14.694Z,1008.2
2017-08-06T00:07:16.094Z,1008.2
2017-08-06T00:08:17.500Z,1008.2
2017-08-06T00:09:19.018Z,1008.2
2017-08-06T00:10:20.422Z,1008.2
2017-08-06T00:11:21.828Z,1008.2
2017-08-06T00:12:23.337Z,1008.2
2017-08-06T00:13:24.743Z,1008.2
2017-08-06T00:14:26.155Z,1008.2
2017-08-06T00:15:27.657Z,1008.2
2017-08-06T00:16:29.061Z,1008.2
2017-08-06T00:17:30.538Z,1008.3
2017-08-06T00:18:31.944Z,1008.2
2017-08-06T00:19:33.343Z,1008.2
2017-08-06T00:20:34.867Z,1008.2
2017-08-06T00:21:36.264Z,1008.3
2017-08-06T00:22:37.665Z,1008.3
2017-08-06T00:23:39.182Z,1008.3
2017-08-06T00:24:40.642Z,1008.3
2017-08-06T00:25:42.043Z,1008.4
2017-08-06T00:26:43.504Z,1008.5
2017-08-06T00:27:44.906Z,1008.5
2017-08-06T00:28:46.763Z,1008.6
2017-08-06T00:29:48.164Z,1008.6
2017-08-06T00:30:49.675Z,1008.6
2017-08-06T00:31:51.102Z,1008.7
2017-08-06T00:32:52.758Z,1008.7
2017-08-06T00:33:54.163Z,1008.7
2017-08-06T00:34:55.639Z,1008.8
2017-08-06T00:35:57.060Z,1008.8
2017-08-06T00:36:58.520Z,1008.8
2017-08-06T00:37:59.919Z,1008.9
2017-08-06T00:39:01.428Z,1009.0
2017-08-06T00:40:02.829Z,1009.0
2017-08-06T00:41:04.242Z,1009.1
2017-08-06T00:42:05.719Z,1009.1
2017-08-06T00:43:07.120Z,1009.1
2017-08-06T00:44:08.520Z,1009.2
2017-08-06T00:45:10.040Z,1009.2
2017-08-06T00:46:11.462Z,1009.3
2017-08-06T00:47:13.306Z,1009.3
2017-08-06T00:48:14.709Z,1009.3
2017-08-06T00:49:16.211Z,1009.4
2017-08-06T00:50:17.619Z,1009.5
2017-08-06T00:51:19.020Z,1009.5
2017-08-06T00:52:20.535Z,1009.6
2017-08-06T00:53:21.940Z,1009.7
2017-08-06T00:54:23.343Z,1009.8
2017-08-06T00:55:24.851Z,1009.8
2017-08-06T00:56:26.259Z,1009.8
2017-08-06T00:57:27.735Z,1009.9
2017-08-06T00:58:29.138Z,1009.9
2017-08-06T00:59:30.614Z,1009.9
2017-08-06T01:00:32.018Z,1010.0
2017-08-06T01:01:33.597Z,1010.1
2017-08-06T01:02:35.006Z,1010.0
2017-08-06T01:03:36.579Z,1010.0
2017-08-06T01:04:37.985Z,1010.0
2017-08-06T01:05:39.385Z,1010.0
2017-08-06T01:06:40.901Z,1010.0
2017-08-06T01:07:42.310Z,1010.0
2017-08-06T01:08:43.710Z,1010.0
2017-08-06T01:09:45.234Z,1010.0
2017-08-06T01:10:46.637Z,1010.0
2017-08-06T01:11:48.106Z,1009.9
2017-08-06T01:12:49.508Z,1009.9
2017-08-06T01:13:51.095Z,1009.9
2017-08-06T01:14:52.512Z,1009.9
2017-08-06T01:15:54.070Z,1009.8
2017-08-06T01:16:55.509Z,1009.8
2017-08-06T01:17:57.154Z,1009.8
2017-08-06T01:18:58.590Z,1009.8
2017-08-06T01:19:59.993Z,1009.8
2017-08-06T01:21:01.475Z,1009.7
2017-08-06T01:22:02.878Z,1009.7
2017-08-06T01:23:04.282Z,1009.6
2017-08-06T01:24:05.797Z,1009.6
2017-08-06T01:25:07.202Z,1009.5
2017-08-06T01:26:08.602Z,1009.5
2017-08-06T01:27:10.117Z,1009.4
2017-08-06T01:28:11.538Z,1009.5
2017-08-06T01:29:12.936Z,1009.4
2017-08-06T01:30:14.443Z,1009.4
2017-08-06T01:31:15.852Z,1009.4
2017-08-06T01:32:17.320Z,1009.4
2017-08-06T01:33:18.720Z,1009.4
2017-08-06T01:34:20.200Z,1009.3
2017-08-06T01:35:21.603Z,1009.3
2017-08-06T01:36:23.084Z,1009.3
2017-08-06T01:37:24.486Z,1009.2
2017-08-06T01:38:25.961Z,1009.1
2017-08-06T01:39:27.381Z,1009.1
2017-08-06T01:40:28.837Z,1009.1
2017-08-06T01:41:30.242Z,1009.0
2017-08-06T01:42:31.719Z,1009.0
2017-08-06T01:43:33.126Z,1009.0
2017-08-06T01:44:34.603Z,1008.9
2017-08-06T01:45:36.006Z,1008.9
2017-08-06T01:46:37.413Z,1008.9
2017-08-06T01:47:38.924Z,1008.9
2017-08-06T01:48:40.334Z,1008.9
2017-08-06T01:49:41.738Z,1008.9
2017-08-06T01:50:43.244Z,1008.9
2017-08-06T01:51:44.646Z,1008.9
2017-08-06T01:52:46.125Z,1008.9
2017-08-06T01:53:47.532Z,1008.8
2017-08-06T01:54:49.009Z,1008.8
2017-08-06T01:55:50.409Z,1008.7
2017-08-06T01:56:51.886Z,1008.7
2017-08-06T01:57:53.292Z,1008.7
2017-08-06T01:58:54.767Z,1008.7
2017-08-06T01:59:56.171Z,1008.7
2017-08-06T02:00:57.575Z,1008.6
2017-08-06T02:01:59.119Z,1008.7
2017-08-06T02:03:00.541Z,1008.6
2017-08-06T02:04:02.005Z,1008.5
2017-08-06T02:05:03.635Z,1008.5
2017-08-06T02:06:05.035Z,1008.4
2017-08-06T02:07:06.449Z,1008.4
2017-08-06T02:08:07.936Z,1008.4
2017-08-06T02:09:09.336Z,1008.4
2017-08-06T02:10:10.736Z,1008.4
2017-08-06T02:11:12.256Z,1008.3
2017-08-06T02:12:13.659Z,1008.3
2017-08-06T02:13:15.152Z,1008.3
2017-08-06T02:14:16.588Z,1008.3
2017-08-06T02:15:18.220Z,1008.3
2017-08-06T02:16:19.625Z,1008.2
2017-08-06T02:17:21.026Z,1008.2
2017-08-06T02:18:22.544Z,1008.2
2017-08-06T02:19:23.947Z,1008.2
2017-08-06T02:20:25.351Z,1008.2
2017-08-06T02:21:26.863Z,1008.1
2017-08-06T02:22:28.270Z,1008.1
2017-08-06T02:23:29.743Z,1008.1
2017-08-06T02:24:31.147Z,1008.2
2017-08-06T02:25:32.624Z,1008.1
2017-08-06T02:26:34.032Z,1008.1
2017-08-06T02:27:35.504Z,1008.1
2017-08-06T02:28:36.911Z,1008.0
2017-08-06T02:29:38.386Z,1008.0
2017-08-06T02:30:39.792Z,1008.0
2017-08-06T02:31:41.189Z,1008.0
2017-08-06T02:32:42.707Z,1008.0
2017-08-06T02:33:44.114Z,1008.0
2017-08-06T02:34:45.512Z,1008.0
2017-08-06T02:35:47.028Z,1008.0
2017-08-06T02:36:48.472Z,1008.0
2017-08-06T02:37:49.881Z,1008.0
2017-08-06T02:38:51.350Z,1008.0
2017-08-06T02:39:52.754Z,1007.9
2017-08-06T02:40:54.162Z,1007.9
2017-08-06T02:41:55.670Z,1008.0
2017-08-06T02:42:57.082Z,1008.0
2017-08-06T02:43:58.550Z,1008.0
2017-08-06T02:44:59.959Z,1008.0
2017-08-06T02:46:01.549Z,1007.9
2017-08-06T02:47:02.944Z,1007.9
2017-08-06T02:48:04.618Z,1008.0
2017-08-06T02:49:06.022Z,1007.9
2017-08-06T02:50:07.706Z,1007.9
2017-08-06T02:51:09.107Z,1007.9
2017-08-06T02:52:10.790Z,1007.9
2017-08-06T02:53:12.192Z,1007.9
2017-08-06T02:54:13.874Z,1007.8
2017-08-06T02:55:15.282Z,1007.9
2017-08-06T02:56:16.686Z,1007.9
2017-08-06T02:57:18.402Z,1007.9
2017-08-06T02:58:19.806Z,1007.9
2017-08-06T02:59:21.210Z,1007.8
2017-08-06T03:00:22.929Z,1007.8
2017-08-06T03:01:24.332Z,1007.8
2017-08-06T03:02:25.740Z,1007.9
2017-08-06T03:03:27.462Z,1007.9
2017-08-06T03:04:28.868Z,1007.9
2017-08-06T03:05:30.541Z,1007.9
2017-08-06T03:06:31.940Z,1007.9
2017-08-06T03:07:33.351Z,1007.9
2017-08-06T03:08:35.072Z,1008.0
2017-08-06T03:09:36.468Z,1008.0
2017-08-06T03:10:37.863Z,1008.0
2017-08-06T03:11:39.615Z,1008.0
2017-08-06T03:12:40.995Z,1008.0
2017-08-06T03:13:42.397Z,1008.0
2017-08-06T03:14:44.114Z,1008.0
2017-08-06T03:15:45.519Z,1008.1
2017-08-06T03:16:46.922Z,1008.1
2017-08-06T03:17:48.642Z,1008.1
2017-08-06T03:18:50.049Z,1008.2
2017-08-06T03:19:51.724Z,1008.2
2017-08-06T03:20:53.143Z,1008.2
2017-08-06T03:21:54.812Z,1008.2
2017-08-06T03:22:56.215Z,1008.2
2017-08-06T03:23:57.898Z,1008.3
2017-08-06T03:24:59.318Z,1008.3
2017-08-06T03:26:00.993Z,1008.3
2017-08-06T03:27:02.419Z,1008.3
2017-08-06T03:28:03.817Z,1008.3
2017-08-06T03:29:05.533Z,1008.3
2017-08-06T03:30:06.985Z,1008.3
2017-08-06T03:31:08.357Z,1008.4
2017-08-06T03:32:10.044Z,1008.3
2017-08-06T03:33:11.455Z,1008.4
2017-08-06T03:34:12.860Z,1008.4
2017-08-06T03:35:14.565Z,1008.4
2017-08-06T03:36:15.967Z,1008.5
2017-08-06T03:37:17.368Z,1008.4
2017-08-06T03:38:19.089Z,1008.5
2017-08-06T03:39:20.490Z,1008.5
2017-08-06T03:40:21.894Z,1008.5
2017-08-06T03:41:23.409Z,1008.6
2017-08-06T03:42:24.814Z,1008.6
2017-08-06T03:43:26.495Z,1008.6
2017-08-06T03:44:27.897Z,1008.5
2017-08-06T03:45:29.582Z,1008.6
2017-08-06T03:46:30.983Z,1008.6
2017-08-06T03:47:32.664Z,1008.6
2017-08-06T03:48:34.072Z,1008.6
2017-08-06T03:49:35.753Z,1008.6
2017-08-06T03:50:37.152Z,1008.7
2017-08-06T03:51:38.837Z,1008.7
2017-08-06T03:52:40.254Z,1008.7
2017-08-06T03:53:41.923Z,1008.6
2017-08-06T03:54:43.327Z,1008.6
2017-08-06T03:55:45.013Z,1008.6
2017-08-06T03:56:46.409Z,1008.7
2017-08-06T03:57:48.097Z,1008.7
2017-08-06T03:58:49.500Z,1008.7
2017-08-06T03:59:51.552Z,1008.7
2017-08-06T04:00:53.634Z,1008.8
2017-08-06T04:01:55.290Z,1008.8
2017-08-06T04:02:56.692Z,1008.8
2017-08-06T04:03:58.377Z,1008.8
2017-08-06T04:04:59.780Z,1008.9
2017-08-06T04:06:01.463Z,1008.9
2017-08-06T04:07:02.872Z,1008.9
2017-08-06T04:08:04.274Z,1008.9
2017-08-06T04:09:05.985Z,1008.9
2017-08-06T04:10:07.393Z,1009.0
2017-08-06T04:11:08.800Z,1009.0
2017-08-06T04:12:10.312Z,1009.0
2017-08-06T04:13:11.710Z,1009.1
2017-08-06T04:14:13.408Z,1009.2
2017-08-06T04:15:14.816Z,1009.2
2017-08-06T04:16:16.482Z,1009.2
2017-08-06T04:17:17.882Z,1009.2
2017-08-06T04:18:19.562Z,1009.3
2017-08-06T04:19:20.963Z,1009.3
2017-08-06T04:20:22.648Z,1009.3
2017-08-06T04:21:24.051Z,1009.3
2017-08-06T04:22:26.111Z,1009.4
2017-08-06T04:23:27.518Z,1009.5
2017-08-06T04:24:28.928Z,1009.4
2017-08-06T04:25:30.465Z,1009.5
2017-08-06T04:26:31.868Z,1009.6
2017-08-06T04:27:33.278Z,1009.6
2017-08-06T04:28:34.790Z,1009.6
2017-08-06T04:29:36.191Z,1009.7
2017-08-06T04:30:37.599Z,1009.7
2017-08-06T04:31:39.310Z,1009.7
2017-08-06T04:32:40.717Z,1009.7
2017-08-06T04:33:42.125Z,1009.7
2017-08-06T04:34:43.633Z,1009.7
2017-08-06T04:35:45.039Z,1009.8
2017-08-06T04:36:46.717Z,1009.9
2017-08-06T04:37:48.125Z,1009.9
2017-08-06T04:38:49.531Z,1010.0
2017-08-06T04:39:51.052Z,1010.0
2017-08-06T04:40:52.470Z,1010.1
2017-08-06T04:41:53.878Z,1010.2
2017-08-06T04:42:55.564Z,1010.3
2017-08-06T04:43:56.981Z,1010.3
2017-08-06T04:44:58.650Z,1010.3
2017-08-06T04:46:00.057Z,1010.5
2017-08-06T04:47:01.734Z,1010.5
2017-08-06T04:48:03.138Z,1010.6
2017-08-06T04:49:04.821Z,1010.6
2017-08-06T04:50:06.234Z,1010.7
2017-08-06T04:51:07.906Z,1010.7
2017-08-06T04:52:09.334Z,1010.9
2017-08-06T04:53:10.991Z,1010.9
2017-08-06T04:54:12.779Z,1011.1
2017-08-06T04:55:14.280Z,1011.2
2017-08-06T04:56:15.687Z,1011.2
2017-08-06T04:57:17.370Z,1011.3
2017-08-06T04:58:18.776Z,1011.5
2017-08-06T04:59:20.452Z,1011.6
2017-08-06T05:00:21.860Z,1011.7
2017-08-06T05:01:23.536Z,1011.8
2017-08-06T05:02:24.939Z,1011.9
2017-08-06T05:03:26.348Z,1012.0
2017-08-06T05:04:27.858Z,1012.1
2017-08-06T05:05:29.265Z,1012.2
2017-08-06T05:06:31.051Z,1012.4
2017-08-06T05:07:32.587Z,1012.5
2017-08-06T05:08:33.999Z,1012.6
2017-08-06T05:09:35.399Z,1012.7
2017-08-06T05:10:36.910Z,1012.8
2017-08-06T05:11:38.319Z,1013.0
2017-08-06T05:12:39.727Z,1013.1
2017-08-06T05:13:41.252Z,1013.2
2017-08-06T05:14:42.661Z,1013.3
2017-08-06T05:15:44.068Z,1013.5
2017-08-06T05:16:45.756Z,1013.6
2017-08-06T05:17:47.162Z,1013.8
2017-08-06T05:18:48.607Z,1013.8
2017-08-06T05:19:50.285Z,1014.0
2017-08-06T05:20:51.695Z,1014.0
2017-08-06T05:21:53.099Z,1014.1
2017-08-06T05:22:54.603Z,1014.3
2017-08-06T05:23:56.009Z,1014.4
2017-08-06T05:24:57.422Z,1014.5
2017-08-06T05:25:58.924Z,1014.7
2017-08-06T05:27:00.343Z,1014.8
2017-08-06T05:28:01.751Z,1014.9
2017-08-06T05:29:03.449Z,1015.0
2017-08-06T05:30:04.855Z,1015.2
2017-08-06T05:31:06.260Z,1015.4
2017-08-06T05:32:07.772Z,1015.5
2017-08-06T05:33:09.181Z,1015.6
2017-08-06T05:34:10.588Z,1015.8
2017-08-06T05:35:12.100Z,1015.9
2017-08-06T05:36:13.504Z,1016.0
2017-08-06T05:37:14.909Z,1016.2
2017-08-06T05:38:16.415Z,1016.3
2017-08-06T05:39:17.820Z,1016.4
2017-08-06T05:40:19.502Z,1016.6
2017-08-06T05:41:20.910Z,1016.7
2017-08-06T05:42:22.589Z,1016.8
2017-08-06T05:43:24.000Z,1017.0
2017-08-06T05:44:25.402Z,1017.2
2017-08-06T05:45:26.906Z,1017.2
2017-08-06T05:46:28.314Z,1017.4
2017-08-06T05:47:29.724Z,1017.5
2017-08-06T05:48:31.238Z,1017.7
2017-08-06T05:49:32.649Z,1017.7
2017-08-06T05:50:34.315Z,1017.9
2017-08-06T05:51:35.721Z,1018.0
2017-08-06T05:52:37.402Z,1018.1
2017-08-06T05:53:39.187Z,1018.3
2017-08-06T05:54:40.593Z,1018.4
2017-08-06T05:55:42.130Z,1018.5
2017-08-06T05:56:43.538Z,1018.6
2017-08-06T05:57:44.946Z,1018.8
2017-08-06T05:58:46.453Z,1018.9
2017-08-06T05:59:47.876Z,1019.0
2017-08-06T06:00:49.534Z,1019.1
2017-08-06T06:01:50.944Z,1019.2
2017-08-06T06:02:52.621Z,1019.3
2017-08-06T06:03:54.031Z,1019.4
2017-08-06T06:04:55.705Z,1019.5
2017-08-06T06:05:57.110Z,1019.6
2017-08-06T06:06:58.797Z,1019.7
2017-08-06T06:08:00.208Z,1019.8
2017-08-06T06:09:01.876Z,1019.9
2017-08-06T06:10:03.296Z,1020.0
2017-08-06T06:11:04.960Z,1020.1
2017-08-06T06:12:06.372Z,1020.2
2017-08-06T06:13:08.047Z,1020.3
2017-08-06T06:14:09.451Z,1020.5
2017-08-06T06:15:11.135Z,1020.5
2017-08-06T06:16:12.543Z,1020.6
2017-08-06T06:17:13.954Z,1020.7
2017-08-06T06:18:15.456Z,1020.9
2017-08-06T06:19:16.863Z,1021.0
2017-08-06T06:20:18.273Z,1021.0
2017-08-06T06:21:19.778Z,1021.1
2017-08-06T06:22:21.187Z,1021.2
2017-08-06T06:23:22.590Z,1021.4
2017-08-06T06:24:24.101Z,1021.5
2017-08-06T06:25:25.504Z,1021.5
2017-08-06T06:26:27.185Z,1021.7
2017-08-06T06:27:28.588Z,1021.7
2017-08-06T06:28:30.270Z,1021.8
2017-08-06T06:29:31.675Z,1021.9
2017-08-06T06:30:33.126Z,1022.0
2017-08-06T06:31:34.793Z,1022.1
2017-08-06T06:32:36.204Z,1022.2
2017-08-06T06:33:37.634Z,1022.4
2017-08-06T06:34:39.120Z,1022.4
2017-08-06T06:35:40.535Z,1022.6
2017-08-06T06:36:41.939Z,1022.7
2017-08-06T06:37:43.435Z,1022.8
2017-08-06T06:38:44.847Z,1022.9
2017-08-06T06:39:46.254Z,1023.1
2017-08-06T06:40:47.756Z,1023.2
2017-08-06T06:41:49.168Z,1023.3
2017-08-06T06:42:50.754Z,1023.4
2017-08-06T06:43:52.287Z,1023.5
2017-08-06T06:44:53.692Z,1023.7
2017-08-06T06:45:55.368Z,1023.9
2017-08-06T06:46:56.779Z,1024.1
2017-08-06T06:47:58.453Z,1024.3
2017-08-06T06:48:59.858Z,1024.4
2017-08-06T06:50:01.267Z,1024.5
2017-08-06T06:51:02.775Z,1024.7
2017-08-06T06:52:04.187Z,1024.8
2017-08-06T06:53:05.626Z,1024.9
2017-08-06T06:54:07.298Z,1025.1
2017-08-06T06:55:08.709Z,1025.2
2017-08-06T06:56:10.116Z,1025.4
2017-08-06T06:57:11.621Z,1025.6
2017-08-06T06:58:13.313Z,1025.8
2017-08-06T06:59:14.720Z,1026.0
2017-08-06T07:00:16.351Z,1026.2
2017-08-06T07:01:17.760Z,1026.3
2017-08-06T07:02:19.208Z,1026.5
2017-08-06T07:03:20.883Z,1026.7
2017-08-06T07:04:22.284Z,1026.9
2017-08-06T07:05:23.694Z,1027.1
2017-08-06T07:06:25.197Z,1027.3
2017-08-06T07:07:26.607Z,1027.5
2017-08-06T07:08:28.015Z,1027.7
2017-08-06T07:09:29.519Z,1028.0
2017-08-06T07:10:30.923Z,1028.1
2017-08-06T07:11:32.400Z,1028.2
2017-08-06T07:12:33.813Z,1028.3
2017-08-06T07:13:35.484Z,1028.5
2017-08-06T07:14:36.894Z,1028.7
2017-08-06T07:15:38.335Z,1028.8
2017-08-06T07:16:40.011Z,1029.0
2017-08-06T07:17:41.428Z,1029.1
2017-08-06T07:18:42.832Z,1029.3
2017-08-06T07:19:44.332Z,1029.4
2017-08-06T07:20:45.739Z,1029.5
2017-08-06T07:21:47.156Z,1029.7
2017-08-06T07:22:48.652Z,1029.8
2017-08-06T07:23:50.061Z,1029.9
2017-08-06T07:24:51.464Z,1030.1
2017-08-06T07:25:52.974Z,1030.3
2017-08-06T07:26:54.380Z,1030.5
2017-08-06T07:27:55.787Z,1030.7
2017-08-06T07:28:57.294Z,1030.9
2017-08-06T07:29:58.704Z,1031.2
2017-08-06T07:31:00.113Z,1031.3
2017-08-06T07:32:01.615Z,1031.4
2017-08-06T07:33:03.023Z,1031.5
2017-08-06T07:34:04.496Z,1031.6
2017-08-06T07:35:05.906Z,1031.7
2017-08-06T07:36:07.315Z,1032.0
2017-08-06T07:37:08.836Z,1032.1
2017-08-06T07:38:10.247Z,1032.3
2017-08-06T07:39:11.661Z,1032.5
2017-08-06T07:40:13.138Z,1032.7
2017-08-06T07:41:14.559Z,1032.9
2017-08-06T07:42:15.974Z,1033.2
2017-08-06T07:43:17.458Z,1033.4
2017-08-06T07:44:18.868Z,1033.5
2017-08-06T07:45:20.280Z,1033.8
2017-08-06T07:46:21.785Z,1034.1
2017-08-06T07:47:23.199Z,1034.4
2017-08-06T07:48:24.878Z,1034.7
2017-08-06T07:49:26.289Z,1034.6
2017-08-06T07:50:27.696Z,1034.8
2017-08-06T07:51:29.185Z,1034.5
2017-08-06T07:52:30.599Z,1034.6
2017-08-06T07:53:32.020Z,1034.8
2017-08-06T07:54:33.507Z,1034.5
2017-08-06T07:55:34.922Z,1034.7
2017-08-06T07:56:36.346Z,1034.6
2017-08-06T07:57:38.032Z,1034.9
2017-08-06T07:58:39.443Z,1035.1
2017-08-06T07:59:40.856Z,1035.3
2017-08-06T08:00:42.352Z,1035.5
2017-08-06T08:01:43.758Z,1035.7
2017-08-06T08:02:45.235Z,1036.1
2017-08-06T08:03:46.646Z,1036.6
2017-08-06T08:04:48.114Z,1036.9
2017-08-06T08:05:49.530Z,1036.4
2017-08-06T08:06:50.934Z,1035.8
2017-08-06T08:07:52.436Z,1035.9
2017-08-06T08:08:53.843Z,1036.4
2017-08-06T08:09:55.250Z,1036.5
2017-08-06T08:10:56.757Z,1035.9
2017-08-06T08:11:58.164Z,1035.7
2017-08-06T08:12:59.641Z,1035.3
2017-08-06T08:14:01.048Z,1035.2
2017-08-06T08:15:02.519Z,1035.4
2017-08-06T08:16:03.928Z,1035.7
2017-08-06T08:17:05.338Z,1036.0
2017-08-06T08:18:06.839Z,1036.3
2017-08-06T08:19:08.252Z,1036.7
2017-08-06T08:20:09.660Z,1037.3
2017-08-06T08:21:11.159Z,1037.9
2017-08-06T08:22:12.570Z,1038.4
2017-08-06T08:23:14.047Z,1038.6
2017-08-06T08:24:15.474Z,1038.7
2017-08-06T08:25:17.132Z,1038.8
2017-08-06T08:26:18.542Z,1039.2
2017-08-06T08:27:20.006Z,1039.5
2017-08-06T08:28:21.416Z,1039.8
2017-08-06T08:29:22.888Z,1040.1
2017-08-06T08:30:24.296Z,1040.5
2017-08-06T08:31:25.767Z,1040.9
2017-08-06T08:32:27.176Z,1041.2
2017-08-06T08:33:28.648Z,1041.3
2017-08-06T08:34:30.060Z,1041.4
2017-08-06T08:35:31.527Z,1041.8
2017-08-06T08:36:32.946Z,1042.1
2017-08-06T08:37:34.356Z,1042.6
2017-08-06T08:38:35.849Z,1042.9
2017-08-06T08:39:37.278Z,1043.4
2017-08-06T08:40:38.696Z,1043.7
2017-08-06T08:41:40.187Z,1044.3
2017-08-06T08:42:41.598Z,1044.8
2017-08-06T08:43:43.063Z,1045.0
2017-08-06T08:44:44.468Z,1044.7
2017-08-06T08:45:45.941Z,1045.2
2017-08-06T08:46:47.351Z,1045.4
2017-08-06T08:47:48.908Z,1045.7
2017-08-06T08:48:50.337Z,1046.0
2017-08-06T08:49:52.008Z,1046.4
2017-08-06T08:50:53.416Z,1047.2
2017-08-06T08:51:54.986Z,1047.9
2017-08-06T08:52:56.398Z,1048.6
2017-08-06T08:53:57.864Z,1048.7
2017-08-06T08:54:59.277Z,1049.1
2017-08-06T08:56:00.748Z,1049.9
2017-08-06T08:57:02.162Z,1050.8
2017-08-06T08:58:03.629Z,1051.4
2017-08-06T08:59:05.039Z,1052.3
2017-08-06T09:00:06.509Z,1053.2
2017-08-06T09:01:07.920Z,1052.8
2017-08-06T09:02:09.388Z,1051.3
2017-08-06T09:03:10.805Z,1049.8
2017-08-06T09:04:12.266Z,1048.6
2017-08-06T09:05:13.676Z,1047.2
2017-08-06T09:06:15.089Z,1045.9
2017-08-06T09:07:16.589Z,1045.5
2017-08-06T09:08:18.003Z,1047.5
2017-08-06T09:09:19.415Z,1050.3
2017-08-06T09:10:20.915Z,1052.6
2017-08-06T09:11:22.327Z,1055.2
2017-08-06T09:12:23.738Z,1053.7
2017-08-06T09:13:25.232Z,1055.6
2017-08-06T09:14:26.645Z,1058.7
2017-08-06T09:15:28.059Z,1061.4
2017-08-06T09:16:29.554Z,1061.7
2017-08-06T09:17:30.971Z,1058.9
2017-08-06T09:18:32.383Z,1056.7
2017-08-06T09:19:33.871Z,1054.4
2017-08-06T09:20:35.283Z,1052.7
2017-08-06T09:21:36.690Z,1058.5
2017-08-06T09:22:38.197Z,1064.6
2017-08-06T09:23:39.609Z,1060.5
2017-08-06T09:24:41.074Z,1056.9
2017-08-06T09:25:42.497Z,1064.6
2017-08-06T09:26:43.905Z,1065.1
2017-08-06T09:27:45.398Z,1071.0
2017-08-06T09:28:46.808Z,1074.5
2017-08-06T09:29:48.224Z,1076.8
2017-08-06T09:30:49.717Z,1079.5
2017-08-06T09:31:51.132Z,1082.4
2017-08-06T09:32:52.549Z,1085.0
2017-08-06T09:33:54.041Z,1087.5
2017-08-06T09:34:55.456Z,1090.4
2017-08-06T09:35:56.874Z,1093.6
2017-08-06T09:36:58.369Z,1095.5
2017-08-06T09:37:59.784Z,1097.9
2017-08-06T09:39:01.202Z,1100.2
2017-08-06T09:40:02.680Z,1103.4
2017-08-06T09:41:04.096Z,1102.3
2017-08-06T09:42:05.523Z,1106.2
2017-08-06T09:43:07.002Z,1109.2
2017-08-06T09:44:08.421Z,1110.5
2017-08-06T09:45:09.847Z,1095.0
2017-08-06T09:46:11.321Z,1092.4
2017-08-06T09:47:12.741Z,1085.4
2017-08-06T09:48:14.201Z,1080.9
2017-08-06T09:49:15.615Z,1076.7
2017-08-06T09:50:17.068Z,1073.1
2017-08-06T09:51:18.481Z,1069.5
2017-08-06T09:52:19.894Z,1066.2
2017-08-06T09:53:21.390Z,1063.2
2017-08-06T09:54:22.805Z,1060.6
2017-08-06T09:55:24.219Z,1058.2
2017-08-06T09:56:25.731Z,1059.0
2017-08-06T09:57:27.147Z,1065.0
2017-08-06T09:58:28.595Z,1069.8
2017-08-06T09:59:30.020Z,1070.1
2017-08-06T10:00:31.474Z,1071.3
2017-08-06T10:01:32.893Z,1067.1
2017-08-06T10:02:34.356Z,1066.7
2017-08-06T10:03:35.773Z,1071.1
2017-08-06T10:04:37.241Z,1074.1
2017-08-06T10:05:38.656Z,1078.0
2017-08-06T10:06:40.118Z,1081.3
2017-08-06T10:07:41.534Z,1084.4
2017-08-06T10:08:43.000Z,1087.7
2017-08-06T10:09:44.418Z,1094.0
2017-08-06T10:10:45.880Z,1107.8
2017-08-06T10:11:47.307Z,1096.3
2017-08-06T10:12:48.761Z,1117.0
2017-08-06T10:13:50.180Z,1101.5
2017-08-06T10:14:51.651Z,1116.3
2017-08-06T10:15:53.072Z,1109.4
2017-08-06T10:16:54.492Z,1090.3
2017-08-06T10:17:55.961Z,1086.1
2017-08-06T10:18:57.377Z,1085.0
2017-08-06T10:19:58.794Z,1079.1
2017-08-06T10:21:00.294Z,1075.3
2017-08-06T10:22:01.726Z,1102.7
2017-08-06T10:23:03.135Z,1079.7
2017-08-06T10:24:04.635Z,1076.1
2017-08-06T10:25:06.053Z,1071.9
2017-08-06T10:26:07.486Z,1068.8
2017-08-06T10:27:08.904Z,1078.1
2017-08-06T10:28:10.320Z,1071.6
2017-08-06T10:29:11.808Z,1067.3
2017-08-06T10:30:13.226Z,1064.8
2017-08-06T10:31:14.645Z,1064.0
2017-08-06T10:32:16.131Z,1090.7
2017-08-06T10:33:17.549Z,1088.4
2017-08-06T10:34:18.967Z,1099.2
2017-08-06T10:35:20.452Z,1103.0
2017-08-06T10:36:21.871Z,1097.3
2017-08-06T10:37:23.292Z,1107.6
2017-08-06T10:38:24.775Z,1107.3
2017-08-06T10:39:26.190Z,1109.9
2017-08-06T10:40:27.656Z,1103.6
2017-08-06T10:41:29.074Z,1114.4
2017-08-06T10:42:30.538Z,1114.8
2017-08-06T10:43:31.954Z,1112.5
2017-08-06T10:44:33.371Z,1103.2
2017-08-06T10:45:34.856Z,1097.1
2017-08-06T10:46:36.275Z,1092.3
2017-08-06T10:47:37.689Z,1088.0
2017-08-06T10:48:39.211Z,1083.9
2017-08-06T10:49:41.019Z,1082.2
2017-08-06T10:50:42.673Z,1081.3
2017-08-06T10:51:44.103Z,1081.2
2017-08-06T10:52:45.521Z,1081.1
2017-08-06T10:53:47.012Z,1081.1
2017-08-06T10:54:48.452Z,1081.1
2017-08-06T10:55:49.872Z,1081.1
2017-08-06T10:56:51.293Z,1081.1
2017-08-06T10:57:52.879Z,1081.1
2017-08-06T10:58:54.279Z,1081.0
2017-08-06T10:59:55.696Z,1080.8
2017-08-06T11:00:57.388Z,1080.9
2017-08-06T11:01:58.820Z,1081.2
2017-08-06T11:03:00.276Z,1081.3
2017-08-06T11:04:01.915Z,1080.7
2017-08-06T11:05:03.335Z,1079.7
2017-08-06T11:06:05.001Z,1079.8
2017-08-06T11:07:06.417Z,1081.0
2017-08-06T11:08:08.087Z,1082.6
2017-08-06T11:09:09.533Z,1084.1
2017-08-06T11:10:11.173Z,1085.6
2017-08-06T11:11:12.598Z,1087.3
2017-08-06T11:12:14.053Z,1089.7
2017-08-06T11:13:15.481Z,1092.5
2017-08-06T11:14:16.895Z,1093.6
2017-08-06T11:15:18.579Z,1095.2
2017-08-06T11:16:20.001Z,1098.9
2017-08-06T11:17:21.419Z,1102.0
2017-08-06T11:18:23.106Z,1103.9
2017-08-06T11:19:24.526Z,1106.1
2017-08-06T11:20:25.969Z,1106.4
2017-08-06T11:21:27.626Z,1097.7
2017-08-06T11:22:29.057Z,1101.7
2017-08-06T11:23:30.474Z,1103.4
2017-08-06T11:24:32.154Z,1104.8
2017-08-06T11:25:33.576Z,1103.3
2017-08-06T11:26:35.239Z,1102.8
2017-08-06T11:27:36.660Z,1098.5
2017-08-06T11:28:38.077Z,1105.1
2017-08-06T11:29:39.781Z,1100.5
2017-08-06T11:30:41.209Z,1093.3
2017-08-06T11:31:42.625Z,1087.5
2017-08-06T11:32:44.286Z,1082.3
2017-08-06T11:33:45.712Z,1079.6
2017-08-06T11:34:47.387Z,1080.5
2017-08-06T11:35:48.809Z,1073.8
2017-08-06T11:36:50.490Z,1069.3
2017-08-06T11:37:51.908Z,1067.1
2017-08-06T11:38:53.557Z,1081.4
2017-08-06T11:39:54.990Z,1089.4
2017-08-06T11:40:56.638Z,1094.9
2017-08-06T11:41:58.058Z,1095.0
2017-08-06T11:42:59.716Z,1087.6
2017-08-06T11:44:01.127Z,1081.2
2017-08-06T11:45:02.816Z,1076.1
2017-08-06T11:46:04.233Z,1071.4
2017-08-06T11:47:05.902Z,1066.8
2017-08-06T11:48:07.303Z,1062.3
2017-08-06T11:49:08.972Z,1058.2
2017-08-06T11:50:10.387Z,1054.3
2017-08-06T11:51:12.276Z,1050.9
2017-08-06T11:52:13.719Z,1049.5
2017-08-06T11:53:15.348Z,1046.7
2017-08-06T11:54:16.780Z,1044.7
2017-08-06T11:55:18.432Z,1044.5
2017-08-06T11:56:19.852Z,1040.9
2017-08-06T11:57:21.518Z,1039.9
2017-08-06T11:58:22.930Z,1036.8
2017-08-06T11:59:24.981Z,1034.2
2017-08-06T12:00:26.401Z,1031.5
2017-08-06T12:01:28.102Z,1029.2
2017-08-06T12:02:29.512Z,1027.1
2017-08-06T12:03:31.186Z,1025.2
2017-08-06T12:04:32.597Z,1028.6
2017-08-06T12:05:34.277Z,1031.8
2017-08-06T12:06:35.690Z,1032.7
2017-08-06T12:07:37.155Z,1034.5
2017-08-06T12:08:38.566Z,1036.4
2017-08-06T12:09:40.253Z,1036.7
2017-08-06T12:10:41.655Z,1039.6
2017-08-06T12:11:43.324Z,1041.7
2017-08-06T12:12:44.754Z,1043.5
2017-08-06T12:13:46.174Z,1045.3
2017-08-06T12:14:47.846Z,1046.6
2017-08-06T12:15:49.261Z,1047.8
2017-08-06T12:16:50.679Z,1048.3
2017-08-06T12:17:52.376Z,1048.2
2017-08-06T12:18:53.797Z,1046.6
2017-08-06T12:19:55.213Z,1044.7
2017-08-06T12:20:56.897Z,1042.6
2017-08-06T12:21:58.313Z,1040.9
2017-08-06T12:22:59.727Z,1040.0
2017-08-06T12:24:01.436Z,1039.1
2017-08-06T12:25:02.855Z,1038.9
2017-08-06T12:26:04.272Z,1039.2
2017-08-06T12:27:05.951Z,1040.3
2017-08-06T12:28:07.367Z,1041.9
2017-08-06T12:29:08.780Z,1043.6
2017-08-06T12:30:10.474Z,1039.1
2017-08-06T12:31:12.278Z,1036.9
2017-08-06T12:32:13.698Z,1037.8
2017-08-06T12:33:15.611Z,1040.3
2017-08-06T12:34:17.028Z,1038.2
2017-08-06T12:35:18.715Z,1041.4
2017-08-06T12:36:20.135Z,1043.8
2017-08-06T12:37:21.788Z,1045.8
2017-08-06T12:38:23.209Z,1047.4
2017-08-06T12:39:24.627Z,1048.6
2017-08-06T12:40:26.314Z,1050.2
2017-08-06T12:41:27.746Z,1046.4
2017-08-06T12:42:29.162Z,1041.5
2017-08-06T12:43:30.837Z,1037.3
2017-08-06T12:44:32.252Z,1034.1
2017-08-06T12:45:33.671Z,1034.5
2017-08-06T12:46:35.363Z,1035.8